Flight Track Log - Related Links

Times and Time Zones

All times are in EDT time to prevent confusion due to time zone crossing. See the ASQ5245 flight status page for this flight to view local times or setup timezone preferences in your user account.

Time Position Orientation Groundspeed Altitude Reporting Facility
EDT Latitude Longitude Course Direction KTS MPH feet Rate Location/Type
Wed 08:33:35 AM 33.6333 -84.4833 118° Southeast 203 234 3,000  Level Atlanta TRACON
Wed 08:34:35 AM 33.6000 -84.5667 244° Southwest 262 302 6,000 2,525 Climbing Atlanta TRACON
Wed 08:36:57 AM 33.4575 -84.4944 157° South 281 323 11,500 2,109 Climbing Atlanta Center
Wed 08:37:57 AM 33.4536 -84.3650 92° East 299 344 13,100 1,600 Climbing Atlanta Center
Wed 08:38:57 AM 33.4600 -84.2381 87° East 351 404 14,700 1,700 Climbing Atlanta Center
Wed 08:39:00 AM 33.6262 -83.8263 118° Southeast  Level FlightAware Approximate
Wed 08:39:57 AM 33.4811 -84.1061 79° East 389 448 16,500  Level Atlanta Center
Wed 08:40:57 AM 33.5000 -83.9764 80° East 395 455 18,000 1,550 Climbing Atlanta Center
Wed 08:41:57 AM 33.5186 -83.8469 80° East 395 455 19,600 1,450 Climbing Atlanta Center
Wed 08:42:57 AM 33.5369 -83.7122 81° East 395 455 20,900 1,200 Climbing Atlanta Center
Wed 08:43:57 AM 33.5553 -83.5753 81° East 402 463 22,000 1,050 Climbing Atlanta Center
Wed 08:44:57 AM 33.5736 -83.4353 81° East 420 483 23,000 1,000 Climbing Atlanta Center
Wed 08:45:57 AM 33.5936 -83.2931 80° East 426 490 24,000 1,000 Climbing Atlanta Center
Wed 08:46:57 AM 33.6114 -83.1483 82° East 426 490 25,000 324 Climbing Atlanta Center
Wed 08:49:02 AM 33.6506 -82.8403 81° East 431 496 25,000  Level Jacksonville Center
Wed 08:50:02 AM 33.6653 -82.7031 83° East 461 531 25,000  Level Jacksonville Center
Wed 08:51:02 AM 33.6817 -82.5631 82° East 450 518 25,000  Level Jacksonville Center
Wed 08:52:02 AM 33.7000 -82.4183 81° East 439 505 25,000  Level Jacksonville Center
Wed 08:53:02 AM 33.7200 -82.2608 81° East 428 493 25,000  Level Jacksonville Center
Wed 08:54:02 AM 33.7358 -82.1183 82° East 428 493 25,000  Level Jacksonville Center
Wed 08:55:02 AM 33.7539 -81.9733 81° East 428 493 25,000  Level Jacksonville Center
Wed 08:56:02 AM 33.7714 -81.8233 82° East 439 505 25,000  Level Jacksonville Center
Wed 08:57:02 AM 33.7889 -81.6756 82° East 444 511 25,000  Level Jacksonville Center
Wed 08:58:02 AM 33.8081 -81.5303 81° East 444 511 25,000  Level Jacksonville Center
Wed 08:59:02 AM 33.8317 -81.3875 79° East 444 511 25,000  Level Jacksonville Center
Wed 09:00:02 AM 33.8547 -81.2444 79° East 444 511 25,000  Level Jacksonville Center
Wed 09:01:02 AM 33.8800 -81.0964 78° East 444 511 25,000  Level Jacksonville Center
Wed 09:02:02 AM 33.9008 -80.9533 80° East 438 504 25,000  Level Jacksonville Center
Wed 09:03:02 AM 33.9214 -80.8103 80° East 438 504 25,000  Level Jacksonville Center
Wed 09:04:02 AM 33.9461 -80.6669 78° East 432 497 25,000  Level Jacksonville Center
Wed 09:05:02 AM 33.9706 -80.5211 79° East 432 497 25,000  Level Jacksonville Center
Wed 09:06:02 AM 33.9908 -80.3778 80° East 427 491 25,000  Level Jacksonville Center
Wed 09:07:02 AM 34.0128 -80.2344 79° East 427 491 25,000  Level Jacksonville Center
Wed 09:08:02 AM 34.0347 -80.0908 80° East 427 491 25,000  Level Jacksonville Center
Wed 09:09:02 AM 34.0586 -79.9447 79° East 427 491 25,000 -100 Level Jacksonville Center
Wed 09:10:02 AM 34.0803 -79.8011 80° East 432 497 24,800 -500 Descending Jacksonville Center
Wed 09:11:02 AM 34.0994 -79.6525 81° East 432 497 24,000 -1,200 Descending Jacksonville Center
Wed 09:12:02 AM 34.1228 -79.5136 78° East 432 497 22,400 -1,550 Descending Jacksonville Center
Wed 09:13:02 AM 34.1364 -79.3928 82° East 426 490 20,900 -1,650 Descending Jacksonville Center
Wed 09:14:42 AM 34.1683 -79.1711 80° East 427 491 18,000 -1,725 Descending Washington Center
Wed 09:15:42 AM 34.1869 -79.0339 81° East 415 478 16,300 -1,736 Descending Washington Center
Wed 09:16:43 AM 34.2075 -78.9017 79° East 407 468 14,500 -1,785 Descending Washington Center
Wed 09:17:43 AM 34.2256 -78.7767 80° East 397 457 12,700 -1,780 Descending Washington Center
Wed 09:18:41 AM 34.2433 -78.6467 81° East 386 444 11,000 -857 Descending Washington Center
Wed 09:19:42 AM 34.2589 -78.5317 81° East 373 429 11,000 -49 Level Washington Center
Wed 09:20:43 AM 34.2761 -78.4167 80° East 356 410 10,900 -857 Descending Washington Center
Wed 09:21:41 AM 34.2931 -78.3144 79° East 329 379 9,300 -1,729 Descending Washington Center
Wed 09:22:41 AM 34.3244 -78.2222 68° East 304 350 7,500 -1,650 Descending Washington Center
Wed 09:23:41 AM 34.3533 -78.1353 68° East 286 329 6,000 -744 Descending Washington Center
Wed 09:24:42 AM 34.3803 -78.0556 68° East 272 313 6,000 -541 Level Washington Center
Wed 09:25:43 AM 34.4089 -77.9758 66° East 255 293 4,900 -1,361 Descending Washington Center
Wed 09:26:41 AM 34.4333 -77.8986 69° East 249 287 3,300 -966 Descending Washington Center
Wed 09:27:41 AM 34.4053 -77.8450 122° Southeast 205 236 3,000 -300 Descending Washington Center

Login

Don't have an account? Register now (free) for customized features, flight alerts, and more!